PWSweather.com
Personal Weather Stations
Station Observations
719732
Ponferrada, PonferradaES 24411

PonferradaPonferradaES 24411

Lat: 42.5728, Lon: -6.6425

Elevation: 1676

Station Type: PCE-FWS 20 con garita Ambient Weather SRS100LX

www.meteo.spyfly.es

High Low Average
Temperature 67.3°F19.6°C 27.9°F-2.3°C 45.1°F7.3°C
Dew Point 39.9°F4.4°C 25.0°F-3.9°C 34.1°F1.2°C
Winds 13.0 mph 20.9 kmh Calm Calm 3.0 mph S4.8 kmh S
Wind Gusts 19.0 mph30.6 kmh -- 6.0 mph9.7 kmh
Humidity 97% 21% 71%
Pressure 30.50 in1032.8 mb 30.32 in1026.8 mb -
Precipitation 0.00 in0.0 mm - -
Hour Temp Dew Point Humidity Winds Wind Gusts Pressure Precip Precip Rate Daily Precip Total
12:00 AM 35.6°F2.0°C 31.5°F-0.3°C 85% 0.7 mph E1.1 kmh E 3.1 mph5.0 kmh 30.50 in1032.8 mb 0.00 in0.0 mm 0.00 in0.0 mm 0.00 in0.0 mm
12:05 AM 35.6°F2.0°C 31.5°F-0.3°C 85% 1.6 mph NE2.6 kmh NE 3.1 mph5.0 kmh 30.50 in1032.8 mb 0.00 in0.0 mm 0.00 in0.0 mm 0.00 in0.0 mm
12:10 AM 35.4°F1.9°C 31.7°F-0.2°C 86% Calm Calm 3.1 mph5.0 kmh 30.50 in1032.8 mb 0.00 in0.0 mm 0.00 in0.0 mm 0.00 in0.0 mm
12:15 AM 35.1°F1.7°C 31.3°F-0.4°C 86% 1.6 mph NE2.6 kmh NE 3.1 mph5.0 kmh 30.50 in1032.8 mb 0.00 in0.0 mm 0.00 in0.0 mm 0.00 in0.0 mm
12:20 AM 34.9°F1.6°C 31.1°F-0.5°C 86% 1.6 mph NNE2.6 kmh NNE 2.2 mph3.5 kmh 30.50 in1032.8 mb 0.00 in0.0 mm 0.00 in0.0 mm 0.00 in0.0 mm
12:25 AM 34.5°F1.4°C 30.8°F-0.7°C 86% 0.7 mph NE1.1 kmh NE 2.2 mph3.5 kmh 30.50 in1032.8 mb 0.00 in0.0 mm 0.00 in0.0 mm 0.00 in0.0 mm
12:30 AM 34.3°F1.3°C 30.6°F-0.8°C 86% 1.6 mph E2.6 kmh E 2.2 mph3.5 kmh 30.50 in1032.8 mb 0.00 in0.0 mm 0.00 in0.0 mm 0.00 in0.0 mm
12:35 AM 34.5°F1.4°C 31.1°F-0.5°C 87% 1.6 mph E2.6 kmh E 3.1 mph5.0 kmh 30.50 in1032.8 mb 0.00 in0.0 mm 0.00 in0.0 mm 0.00 in0.0 mm
12:40 AM 34.5°F1.4°C 31.1°F-0.5°C 87% Calm Calm 3.1 mph5.0 kmh 30.49 in1032.5 mb 0.00 in0.0 mm 0.00 in0.0 mm 0.00 in0.0 mm
12:45 AM 34.3°F1.3°C 30.9°F-0.6°C 87% 1.6 mph NE2.6 kmh NE 3.1 mph5.0 kmh 30.49 in1032.5 mb 0.00 in0.0 mm 0.00 in0.0 mm 0.00 in0.0 mm
12:50 AM 34.3°F1.3°C 30.9°F-0.6°C 87% 1.6 mph E2.6 kmh E 3.1 mph5.0 kmh 30.49 in1032.5 mb 0.00 in0.0 mm 0.00 in0.0 mm 0.00 in0.0 mm
12:55 AM 34.2°F1.2°C 31.0°F-0.6°C 88% 0.7 mph E1.1 kmh E 3.1 mph5.0 kmh 30.49 in1032.5 mb 0.00 in0.0 mm 0.00 in0.0 mm 0.00 in0.0 mm
01:00 AM 34.0°F1.1°C 30.5°F-0.8°C 87% Calm Calm 2.2 mph3.5 kmh 30.49 in1032.5 mb 0.00 in0.0 mm 0.00 in0.0 mm 0.00 in0.0 mm
01:05 AM 33.8°F1.0°C 30.4°F-0.9°C 87% Calm Calm 1.6 mph2.6 kmh 30.48 in1032.2 mb 0.00 in0.0 mm 0.00 in0.0 mm 0.00 in0.0 mm
01:10 AM 33.4°F0.8°C 30.3°F-0.9°C 88% 0.7 mph N1.1 kmh N 1.6 mph2.6 kmh 30.48 in1032.2 mb 0.00 in0.0 mm 0.00 in0.0 mm 0.00 in0.0 mm
01:15 AM 33.3°F0.7°C 30.1°F-1.1°C 88% 0.7 mph NE1.1 kmh NE 2.2 mph3.5 kmh 30.48 in1032.2 mb 0.00 in0.0 mm 0.00 in0.0 mm 0.00 in0.0 mm
01:20 AM 33.3°F0.7°C 30.1°F-1.1°C 88% 0.7 mph SE1.1 kmh SE 3.1 mph5.0 kmh 30.48 in1032.2 mb 0.00 in0.0 mm 0.00 in0.0 mm 0.00 in0.0 mm
01:25 AM 33.3°F0.7°C 30.4°F-0.9°C 89% Calm Calm 3.1 mph5.0 kmh 30.48 in1032.2 mb 0.00 in0.0 mm 0.00 in0.0 mm 0.00 in0.0 mm
01:30 AM 33.3°F0.7°C 30.4°F-0.9°C 89% 1.6 mph NNE2.6 kmh NNE 2.2 mph3.5 kmh 30.48 in1032.2 mb 0.00 in0.0 mm 0.00 in0.0 mm 0.00 in0.0 mm
01:35 AM 33.1°F0.6°C 30.2°F-1.0°C 89% 0.7 mph N1.1 kmh N 2.2 mph3.5 kmh 30.49 in1032.5 mb 0.00 in0.0 mm 0.00 in0.0 mm 0.00 in0.0 mm
01:40 AM 32.9°F0.5°C 30.0°F-1.1°C 89% 1.6 mph N2.6 kmh N 2.2 mph3.5 kmh 30.48 in1032.2 mb 0.00 in0.0 mm 0.00 in0.0 mm 0.00 in0.0 mm
01:45 AM 32.7°F0.4°C 29.8°F-1.2°C 89% Calm Calm 2.2 mph3.5 kmh 30.48 in1032.2 mb 0.00 in0.0 mm 0.00 in0.0 mm 0.00 in0.0 mm
01:50 AM 32.4°F0.2°C 29.5°F-1.4°C 89% Calm Calm 2.2 mph3.5 kmh 30.48 in1032.2 mb 0.00 in0.0 mm 0.00 in0.0 mm 0.00 in0.0 mm
01:55 AM 32.4°F0.2°C 29.8°F-1.2°C 90% Calm Calm 0.7 mph1.1 kmh 30.48 in1032.2 mb 0.00 in0.0 mm 0.00 in0.0 mm 0.00 in0.0 mm
02:00 AM 32.2°F0.1°C 29.6°F-1.3°C 90% 1.6 mph NE2.6 kmh NE 2.2 mph3.5 kmh 30.48 in1032.2 mb 0.00 in0.0 mm 0.00 in0.0 mm 0.00 in0.0 mm
02:05 AM 32.4°F0.2°C 29.8°F-1.2°C 90% 0.7 mph E1.1 kmh E 2.2 mph3.5 kmh 30.48 in1032.2 mb 0.00 in0.0 mm 0.00 in0.0 mm 0.00 in0.0 mm
02:10 AM 32.4°F0.2°C 30.0°F-1.1°C 91% 0.7 mph E1.1 kmh E 2.2 mph3.5 kmh 30.49 in1032.5 mb 0.00 in0.0 mm 0.00 in0.0 mm 0.00 in0.0 mm
02:15 AM 32.4°F0.2°C 30.0°F-1.1°C 91% Calm Calm 2.2 mph3.5 kmh 30.49 in1032.5 mb 0.00 in0.0 mm 0.00 in0.0 mm 0.00 in0.0 mm
02:20 AM 32.4°F0.2°C 30.0°F-1.1°C 91% 1.6 mph E2.6 kmh E 2.2 mph3.5 kmh 30.48 in1032.2 mb 0.00 in0.0 mm 0.00 in0.0 mm 0.00 in0.0 mm
02:25 AM 32.5°F0.3°C 30.5°F-0.8°C 92% 0.7 mph SE1.1 kmh SE 2.2 mph3.5 kmh 30.49 in1032.5 mb 0.00 in0.0 mm 0.00 in0.0 mm 0.00 in0.0 mm
02:30 AM 32.5°F0.3°C 30.5°F-0.8°C 92% 1.6 mph E2.6 kmh E 3.1 mph5.0 kmh 30.48 in1032.2 mb 0.00 in0.0 mm 0.00 in0.0 mm 0.00 in0.0 mm
02:35 AM 32.5°F0.3°C 30.5°F-0.8°C 92% 0.7 mph NE1.1 kmh NE 3.1 mph5.0 kmh 30.48 in1032.2 mb 0.00 in0.0 mm 0.00 in0.0 mm 0.00 in0.0 mm
02:40 AM 32.4°F0.2°C 30.3°F-0.9°C 92% Calm Calm 2.2 mph3.5 kmh 30.48 in1032.2 mb 0.00 in0.0 mm 0.00 in0.0 mm 0.00 in0.0 mm
02:45 AM 32.2°F0.1°C 30.1°F-1.1°C 92% 0.7 mph E1.1 kmh E 1.6 mph2.6 kmh 30.48 in1032.2 mb 0.00 in0.0 mm 0.00 in0.0 mm 0.00 in0.0 mm
02:50 AM 32.0°F0.0°C 30.0°F-1.1°C 92% 0.7 mph NE1.1 kmh NE 2.2 mph3.5 kmh 30.48 in1032.2 mb 0.00 in0.0 mm 0.00 in0.0 mm 0.00 in0.0 mm
02:55 AM 31.6°F-0.2°C 29.9°F-1.2°C 93% 0.7 mph N1.1 kmh N 2.2 mph3.5 kmh 30.48 in1032.2 mb 0.00 in0.0 mm 0.00 in0.0 mm 0.00 in0.0 mm
03:00 AM 31.5°F-0.3°C 29.4°F-1.4°C 92% 0.7 mph N1.1 kmh N 1.6 mph2.6 kmh 30.48 in1032.2 mb 0.00 in0.0 mm 0.00 in0.0 mm 0.00 in0.0 mm
03:05 AM 31.5°F-0.3°C 29.7°F-1.3°C 93% Calm Calm 1.6 mph2.6 kmh 30.48 in1032.2 mb 0.00 in0.0 mm 0.00 in0.0 mm 0.00 in0.0 mm
03:10 AM 31.5°F-0.3°C 29.7°F-1.3°C 93% Calm Calm 1.6 mph2.6 kmh 30.48 in1032.2 mb 0.00 in0.0 mm 0.00 in0.0 mm 0.00 in0.0 mm
03:15 AM 31.3°F-0.4°C 29.5°F-1.4°C 93% Calm Calm 1.6 mph2.6 kmh 30.48 in1032.2 mb 0.00 in0.0 mm 0.00 in0.0 mm 0.00 in0.0 mm
03:20 AM 31.3°F-0.4°C 29.5°F-1.4°C 93% 0.7 mph NE1.1 kmh NE 1.6 mph2.6 kmh 30.48 in1032.2 mb 0.00 in0.0 mm 0.00 in0.0 mm 0.00 in0.0 mm
03:25 AM 31.3°F-0.4°C 29.5°F-1.4°C 93% 1.6 mph E2.6 kmh E 2.2 mph3.5 kmh 30.48 in1032.2 mb 0.00 in0.0 mm 0.00 in0.0 mm 0.00 in0.0 mm
03:30 AM 31.3°F-0.4°C 29.8°F-1.2°C 94% 1.6 mph E2.6 kmh E 3.1 mph5.0 kmh 30.48 in1032.2 mb 0.00 in0.0 mm 0.00 in0.0 mm 0.00 in0.0 mm
03:35 AM 31.3°F-0.4°C 29.8°F-1.2°C 94% 0.7 mph ESE1.1 kmh ESE 3.1 mph5.0 kmh 30.48 in1032.2 mb 0.00 in0.0 mm 0.00 in0.0 mm 0.00 in0.0 mm
03:40 AM 31.5°F-0.3°C 29.9°F-1.2°C 94% 0.7 mph ESE1.1 kmh ESE 2.2 mph3.5 kmh 30.48 in1032.2 mb 0.00 in0.0 mm 0.00 in0.0 mm 0.00 in0.0 mm
03:50 AM 31.6°F-0.2°C 30.1°F-1.1°C 94% 0.7 mph E1.1 kmh E 2.2 mph3.5 kmh 30.48 in1032.2 mb 0.00 in0.0 mm 0.00 in0.0 mm 0.00 in0.0 mm
03:55 AM 31.5°F-0.3°C 29.9°F-1.2°C 94% 1.6 mph E2.6 kmh E 2.2 mph3.5 kmh 30.48 in1032.2 mb 0.00 in0.0 mm 0.00 in0.0 mm 0.00 in0.0 mm
04:00 AM 31.5°F-0.3°C 29.9°F-1.2°C 94% 1.6 mph ENE2.6 kmh ENE 2.2 mph3.5 kmh 30.47 in1031.8 mb 0.00 in0.0 mm 0.00 in0.0 mm 0.00 in0.0 mm
04:05 AM 31.1°F-0.5°C 29.6°F-1.3°C 94% Calm Calm 2.2 mph3.5 kmh 30.47 in1031.8 mb 0.00 in0.0 mm 0.00 in0.0 mm 0.00 in0.0 mm
04:10 AM 30.9°F-0.6°C 29.4°F-1.4°C 94% 1.6 mph N2.6 kmh N 2.2 mph3.5 kmh 30.47 in1031.8 mb 0.00 in0.0 mm 0.00 in0.0 mm 0.00 in0.0 mm
04:15 AM 30.6°F-0.8°C 29.1°F-1.6°C 94% Calm Calm 2.2 mph3.5 kmh 30.47 in1031.8 mb 0.00 in0.0 mm 0.00 in0.0 mm 0.00 in0.0 mm
04:20 AM 30.4°F-0.9°C 28.9°F-1.7°C 94% 0.7 mph NE1.1 kmh NE 2.2 mph3.5 kmh 30.46 in1031.5 mb 0.00 in0.0 mm 0.00 in0.0 mm 0.00 in0.0 mm
04:25 AM 30.4°F-0.9°C 28.9°F-1.7°C 94% 0.7 mph ENE1.1 kmh ENE 2.2 mph3.5 kmh 30.46 in1031.5 mb 0.00 in0.0 mm 0.00 in0.0 mm 0.00 in0.0 mm
04:30 AM 30.4°F-0.9°C 28.9°F-1.7°C 94% 0.7 mph E1.1 kmh E 2.2 mph3.5 kmh 30.46 in1031.5 mb 0.00 in0.0 mm 0.00 in0.0 mm 0.00 in0.0 mm
04:35 AM 30.4°F-0.9°C 28.9°F-1.7°C 94% 0.7 mph E1.1 kmh E 2.2 mph3.5 kmh 30.46 in1031.5 mb 0.00 in0.0 mm 0.00 in0.0 mm 0.00 in0.0 mm
04:40 AM 30.2°F-1.0°C 28.7°F-1.8°C 94% 0.7 mph E1.1 kmh E 2.2 mph3.5 kmh 30.46 in1031.5 mb 0.00 in0.0 mm 0.00 in0.0 mm 0.00 in0.0 mm
04:45 AM 30.2°F-1.0°C 28.7°F-1.8°C 94% Calm Calm 2.2 mph3.5 kmh 30.46 in1031.5 mb 0.00 in0.0 mm 0.00 in0.0 mm 0.00 in0.0 mm
04:50 AM 30.0°F-1.1°C 28.8°F-1.8°C 95% 0.7 mph NE1.1 kmh NE 2.2 mph3.5 kmh 30.46 in1031.5 mb 0.00 in0.0 mm 0.00 in0.0 mm 0.00 in0.0 mm
04:55 AM 30.2°F-1.0°C 28.7°F-1.8°C 94% Calm Calm 2.2 mph3.5 kmh 30.46 in1031.5 mb 0.00 in0.0 mm 0.00 in0.0 mm 0.00 in0.0 mm
05:00 AM 30.2°F-1.0°C 28.7°F-1.8°C 94% Calm Calm 1.6 mph2.6 kmh 30.46 in1031.5 mb 0.00 in0.0 mm 0.00 in0.0 mm 0.00 in0.0 mm
05:05 AM 30.2°F-1.0°C 28.7°F-1.8°C 94% Calm Calm 1.6 mph2.6 kmh 30.46 in1031.5 mb 0.00 in0.0 mm 0.00 in0.0 mm 0.00 in0.0 mm
05:10 AM 30.0°F-1.1°C 28.8°F-1.8°C 95% Calm Calm -- 30.46 in1031.5 mb 0.00 in0.0 mm 0.00 in0.0 mm 0.00 in0.0 mm
05:15 AM 29.8°F-1.2°C 28.6°F-1.9°C 95% Calm Calm -- 30.46 in1031.5 mb 0.00 in0.0 mm 0.00 in0.0 mm 0.00 in0.0 mm
05:20 AM 29.8°F-1.2°C 28.6°F-1.9°C 95% Calm Calm -- 30.46 in1031.5 mb 0.00 in0.0 mm 0.00 in0.0 mm 0.00 in0.0 mm
05:25 AM 29.7°F-1.3°C 28.4°F-2.0°C 95% Calm Calm -- 30.46 in1031.5 mb 0.00 in0.0 mm 0.00 in0.0 mm 0.00 in0.0 mm
05:30 AM 29.8°F-1.2°C 28.9°F-1.7°C 96% 0.7 mph NE1.1 kmh NE 3.1 mph5.0 kmh 30.46 in1031.5 mb 0.00 in0.0 mm 0.00 in0.0 mm 0.00 in0.0 mm
05:35 AM 29.8°F-1.2°C 28.9°F-1.7°C 96% 1.6 mph NE2.6 kmh NE 3.1 mph5.0 kmh 30.46 in1031.5 mb 0.00 in0.0 mm 0.00 in0.0 mm 0.00 in0.0 mm
05:40 AM 30.0°F-1.1°C 29.0°F-1.7°C 96% Calm Calm 3.1 mph5.0 kmh 30.46 in1031.5 mb 0.00 in0.0 mm 0.00 in0.0 mm 0.00 in0.0 mm
05:45 AM 30.0°F-1.1°C 29.0°F-1.7°C 96% 1.6 mph ENE2.6 kmh ENE 3.1 mph5.0 kmh 30.46 in1031.5 mb 0.00 in0.0 mm 0.00 in0.0 mm 0.00 in0.0 mm
05:50 AM 30.0°F-1.1°C 29.0°F-1.7°C 96% 0.7 mph E1.1 kmh E 2.2 mph3.5 kmh 30.47 in1031.8 mb 0.00 in0.0 mm 0.00 in0.0 mm 0.00 in0.0 mm
05:55 AM 29.8°F-1.2°C 28.9°F-1.7°C 96% 1.6 mph E2.6 kmh E 2.2 mph3.5 kmh 30.46 in1031.5 mb 0.00 in0.0 mm 0.00 in0.0 mm 0.00 in0.0 mm
06:00 AM 29.8°F-1.2°C 28.9°F-1.7°C 96% 1.6 mph E2.6 kmh E 3.1 mph5.0 kmh 30.47 in1031.8 mb 0.00 in0.0 mm 0.00 in0.0 mm 0.00 in0.0 mm
06:05 AM 29.7°F-1.3°C 28.7°F-1.8°C 96% 2.2 mph E3.5 kmh E 3.1 mph5.0 kmh 30.47 in1031.8 mb 0.00 in0.0 mm 0.00 in0.0 mm 0.00 in0.0 mm
06:10 AM 29.7°F-1.3°C 28.7°F-1.8°C 96% 2.2 mph E3.5 kmh E 3.8 mph6.1 kmh 30.47 in1031.8 mb 0.00 in0.0 mm 0.00 in0.0 mm 0.00 in0.0 mm
06:15 AM 29.7°F-1.3°C 28.7°F-1.8°C 96% 2.2 mph ESE3.5 kmh ESE 3.8 mph6.1 kmh 30.47 in1031.8 mb 0.00 in0.0 mm 0.00 in0.0 mm 0.00 in0.0 mm
06:20 AM 29.7°F-1.3°C 28.7°F-1.8°C 96% 1.6 mph E2.6 kmh E 3.8 mph6.1 kmh 30.47 in1031.8 mb 0.00 in0.0 mm 0.00 in0.0 mm 0.00 in0.0 mm
06:25 AM 29.7°F-1.3°C 28.7°F-1.8°C 96% 1.6 mph E2.6 kmh E 3.8 mph6.1 kmh 30.47 in1031.8 mb 0.00 in0.0 mm 0.00 in0.0 mm 0.00 in0.0 mm
06:30 AM 29.5°F-1.4°C 28.5°F-1.9°C 96% 0.7 mph E1.1 kmh E 3.8 mph6.1 kmh 30.47 in1031.8 mb 0.00 in0.0 mm 0.00 in0.0 mm 0.00 in0.0 mm
06:35 AM 29.3°F-1.5°C 28.3°F-2.1°C 96% 0.7 mph E1.1 kmh E 2.2 mph3.5 kmh 30.46 in1031.5 mb 0.00 in0.0 mm 0.00 in0.0 mm 0.00 in0.0 mm
06:40 AM 29.1°F-1.6°C 28.1°F-2.2°C 96% 1.6 mph NE2.6 kmh NE 2.2 mph3.5 kmh 30.47 in1031.8 mb 0.00 in0.0 mm 0.00 in0.0 mm 0.00 in0.0 mm
06:45 AM 28.9°F-1.7°C 28.0°F-2.2°C 96% 0.7 mph NNE1.1 kmh NNE 2.2 mph3.5 kmh 30.47 in1031.8 mb 0.00 in0.0 mm 0.00 in0.0 mm 0.00 in0.0 mm
06:50 AM 28.8°F-1.8°C 27.8°F-2.3°C 96% Calm Calm 2.2 mph3.5 kmh 30.47 in1031.8 mb 0.00 in0.0 mm 0.00 in0.0 mm 0.00 in0.0 mm
06:55 AM 28.6°F-1.9°C 27.3°F-2.6°C 95% Calm Calm 1.6 mph2.6 kmh 30.47 in1031.8 mb 0.00 in0.0 mm 0.00 in0.0 mm 0.00 in0.0 mm
07:00 AM 28.4°F-2.0°C 27.2°F-2.7°C 95% Calm Calm 1.6 mph2.6 kmh 30.47 in1031.8 mb 0.00 in0.0 mm 0.00 in0.0 mm 0.00 in0.0 mm
07:05 AM 28.2°F-2.1°C 26.0°F-3.3°C 91% Calm Calm 1.6 mph2.6 kmh 30.48 in1032.2 mb 0.00 in0.0 mm 0.00 in0.0 mm 0.00 in0.0 mm
07:10 AM 28.2°F-2.1°C 26.0°F-3.3°C 91% Calm Calm 0.7 mph1.1 kmh 30.47 in1031.8 mb 0.00 in0.0 mm 0.00 in0.0 mm 0.00 in0.0 mm
07:15 AM 28.4°F-2.0°C 27.4°F-2.6°C 96% 2.2 mph SE3.5 kmh SE 3.1 mph5.0 kmh 30.48 in1032.2 mb 0.00 in0.0 mm 0.00 in0.0 mm 0.00 in0.0 mm
07:20 AM 28.6°F-1.9°C 27.6°F-2.4°C 96% 0.7 mph SE1.1 kmh SE 3.1 mph5.0 kmh 30.48 in1032.2 mb 0.00 in0.0 mm 0.00 in0.0 mm 0.00 in0.0 mm
07:25 AM 28.8°F-1.8°C 27.8°F-2.3°C 96% Calm Calm 3.1 mph5.0 kmh 30.47 in1031.8 mb 0.00 in0.0 mm 0.00 in0.0 mm 0.00 in0.0 mm
07:30 AM 28.9°F-1.7°C 28.0°F-2.2°C 96% Calm Calm 2.2 mph3.5 kmh 30.47 in1031.8 mb 0.00 in0.0 mm 0.00 in0.0 mm 0.00 in0.0 mm
07:35 AM 28.9°F-1.7°C 28.0°F-2.2°C 96% Calm Calm 2.2 mph3.5 kmh 30.48 in1032.2 mb 0.00 in0.0 mm 0.00 in0.0 mm 0.00 in0.0 mm
07:40 AM 28.8°F-1.8°C 27.8°F-2.3°C 96% Calm Calm 0.7 mph1.1 kmh 30.47 in1031.8 mb 0.00 in0.0 mm 0.00 in0.0 mm 0.00 in0.0 mm
07:45 AM 28.6°F-1.9°C 27.6°F-2.4°C 96% 0.7 mph NE1.1 kmh NE 1.6 mph2.6 kmh 30.47 in1031.8 mb 0.00 in0.0 mm 0.00 in0.0 mm 0.00 in0.0 mm
07:50 AM 28.4°F-2.0°C 27.4°F-2.6°C 96% Calm Calm 2.2 mph3.5 kmh 30.47 in1031.8 mb 0.00 in0.0 mm 0.00 in0.0 mm 0.00 in0.0 mm
07:55 AM 28.2°F-2.1°C 26.2°F-3.2°C 92% Calm Calm 2.2 mph3.5 kmh 30.47 in1031.8 mb 0.00 in0.0 mm 0.00 in0.0 mm 0.00 in0.0 mm
08:00 AM 28.0°F-2.2°C 26.0°F-3.3°C 92% 0.7 mph N1.1 kmh N 1.6 mph2.6 kmh 30.47 in1031.8 mb 0.00 in0.0 mm 0.00 in0.0 mm 0.00 in0.0 mm
08:05 AM 27.9°F-2.3°C 25.9°F-3.4°C 92% Calm Calm 1.6 mph2.6 kmh 30.47 in1031.8 mb 0.00 in0.0 mm 0.00 in0.0 mm 0.00 in0.0 mm
08:10 AM 27.9°F-2.3°C 25.9°F-3.4°C 92% Calm Calm 1.6 mph2.6 kmh 30.47 in1031.8 mb 0.00 in0.0 mm 0.00 in0.0 mm 0.00 in0.0 mm
08:15 AM 28.2°F-2.1°C 26.2°F-3.2°C 92% 0.7 mph N1.1 kmh N 2.2 mph3.5 kmh 30.47 in1031.8 mb 0.00 in0.0 mm 0.00 in0.0 mm 0.00 in0.0 mm
08:20 AM 28.6°F-1.9°C 27.6°F-2.4°C 96% Calm Calm 2.2 mph3.5 kmh 30.47 in1031.8 mb 0.00 in0.0 mm 0.00 in0.0 mm 0.00 in0.0 mm
08:25 AM 28.8°F-1.8°C 27.8°F-2.3°C 96% 0.7 mph N1.1 kmh N 1.6 mph2.6 kmh 30.47 in1031.8 mb 0.00 in0.0 mm 0.00 in0.0 mm 0.00 in0.0 mm
08:30 AM 29.5°F-1.4°C 28.7°F-1.8°C 97% 1.6 mph NNE2.6 kmh NNE 2.2 mph3.5 kmh 30.47 in1031.8 mb 0.00 in0.0 mm 0.00 in0.0 mm 0.00 in0.0 mm
08:35 AM 30.7°F-0.7°C 29.7°F-1.3°C 96% 0.7 mph NE1.1 kmh NE 3.1 mph5.0 kmh 30.47 in1031.8 mb 0.00 in0.0 mm 0.00 in0.0 mm 0.00 in0.0 mm
08:40 AM 31.6°F-0.2°C 30.9°F-0.6°C 97% Calm Calm 3.1 mph5.0 kmh 30.47 in1031.8 mb 0.00 in0.0 mm 0.00 in0.0 mm 0.00 in0.0 mm
08:45 AM 32.7°F0.4°C 31.7°F-0.2°C 96% 1.6 mph E2.6 kmh E 2.2 mph3.5 kmh 30.47 in1031.8 mb 0.00 in0.0 mm 0.00 in0.0 mm 0.00 in0.0 mm
08:50 AM 33.4°F0.8°C 32.4°F0.2°C 96% 0.7 mph ESE1.1 kmh ESE 2.2 mph3.5 kmh 30.47 in1031.8 mb 0.00 in0.0 mm 0.00 in0.0 mm 0.00 in0.0 mm
08:55 AM 34.2°F1.2°C 32.6°F0.3°C 94% 0.7 mph E1.1 kmh E 2.2 mph3.5 kmh 30.48 in1032.2 mb 0.00 in0.0 mm 0.00 in0.0 mm 0.00 in0.0 mm
09:00 AM 34.7°F1.5°C 33.2°F0.7°C 94% 0.7 mph E1.1 kmh E 2.2 mph3.5 kmh 30.48 in1032.2 mb 0.00 in0.0 mm 0.00 in0.0 mm 0.00 in0.0 mm
09:05 AM 35.6°F2.0°C 33.5°F0.8°C 92% 1.6 mph E2.6 kmh E 3.1 mph5.0 kmh 30.48 in1032.2 mb 0.00 in0.0 mm 0.00 in0.0 mm 0.00 in0.0 mm
09:10 AM 36.1°F2.3°C 34.0°F1.1°C 92% Calm Calm 3.1 mph5.0 kmh 30.47 in1031.8 mb 0.00 in0.0 mm 0.00 in0.0 mm 0.00 in0.0 mm
09:15 AM 37.0°F2.8°C 34.7°F1.5°C 91% 2.2 mph S3.5 kmh S 3.1 mph5.0 kmh 30.48 in1032.2 mb 0.00 in0.0 mm 0.00 in0.0 mm 0.00 in0.0 mm
09:20 AM 37.6°F3.1°C 35.7°F2.1°C 93% Calm Calm 3.1 mph5.0 kmh 30.48 in1032.2 mb 0.00 in0.0 mm 0.00 in0.0 mm 0.00 in0.0 mm
09:25 AM 38.5°F3.6°C 36.4°F2.4°C 92% 0.7 mph SSW1.1 kmh SSW 3.1 mph5.0 kmh 30.48 in1032.2 mb 0.00 in0.0 mm 0.00 in0.0 mm 0.00 in0.0 mm
09:30 AM 38.8°F3.8°C 36.2°F2.3°C 90% 1.6 mph SW2.6 kmh SW 2.2 mph3.5 kmh 30.48 in1032.2 mb 0.00 in0.0 mm 0.00 in0.0 mm 0.00 in0.0 mm
09:35 AM 39.2°F4.0°C 36.0°F2.2°C 88% 1.6 mph SSW2.6 kmh SSW 3.1 mph5.0 kmh 30.48 in1032.2 mb 0.00 in0.0 mm 0.00 in0.0 mm 0.00 in0.0 mm
09:40 AM 39.2°F4.0°C 35.4°F1.9°C 86% 1.6 mph S2.6 kmh S 3.1 mph5.0 kmh 30.48 in1032.2 mb 0.00 in0.0 mm 0.00 in0.0 mm 0.00 in0.0 mm
09:45 AM 39.6°F4.2°C 35.4°F1.9°C 85% 1.6 mph S2.6 kmh S 3.1 mph5.0 kmh 30.48 in1032.2 mb 0.00 in0.0 mm 0.00 in0.0 mm 0.00 in0.0 mm
09:50 AM 40.1°F4.5°C 36.0°F2.2°C 85% 1.6 mph S2.6 kmh S 3.8 mph6.1 kmh 30.48 in1032.2 mb 0.00 in0.0 mm 0.00 in0.0 mm 0.00 in0.0 mm
09:55 AM 40.5°F4.7°C 36.3°F2.4°C 85% 1.6 mph S2.6 kmh S 3.8 mph6.1 kmh 30.48 in1032.2 mb 0.00 in0.0 mm 0.00 in0.0 mm 0.00 in0.0 mm
10:00 AM 41.0°F5.0°C 36.2°F2.3°C 83% 2.2 mph S3.5 kmh S 3.8 mph6.1 kmh 30.48 in1032.2 mb 0.00 in0.0 mm 0.00 in0.0 mm 0.00 in0.0 mm
10:05 AM 41.0°F5.0°C 35.9°F2.2°C 82% 2.2 mph S3.5 kmh S 3.8 mph6.1 kmh 30.48 in1032.2 mb 0.00 in0.0 mm 0.00 in0.0 mm 0.00 in0.0 mm
10:10 AM 41.2°F5.1°C 35.8°F2.1°C 81% 2.2 mph SSE3.5 kmh SSE 3.8 mph6.1 kmh 30.48 in1032.2 mb 0.00 in0.0 mm 0.00 in0.0 mm 0.00 in0.0 mm
10:15 AM 41.5°F5.3°C 36.2°F2.3°C 81% 1.6 mph SE2.6 kmh SE 4.5 mph7.2 kmh 30.48 in1032.2 mb 0.00 in0.0 mm 0.00 in0.0 mm 0.00 in0.0 mm
10:20 AM 41.9°F5.5°C 36.5°F2.5°C 81% 0.7 mph SE1.1 kmh SE 4.5 mph7.2 kmh 30.48 in1032.2 mb 0.00 in0.0 mm 0.00 in0.0 mm 0.00 in0.0 mm
10:25 AM 42.4°F5.8°C 36.7°F2.6°C 80% 1.6 mph SE2.6 kmh SE 3.8 mph6.1 kmh 30.48 in1032.2 mb 0.00 in0.0 mm 0.00 in0.0 mm 0.00 in0.0 mm
10:30 AM 42.8°F6.0°C 36.4°F2.4°C 78% 1.6 mph SE2.6 kmh SE 3.8 mph6.1 kmh 30.48 in1032.2 mb 0.00 in0.0 mm 0.00 in0.0 mm 0.00 in0.0 mm
10:35 AM 43.0°F6.1°C 36.3°F2.4°C 77% 2.2 mph SE3.5 kmh SE 3.8 mph6.1 kmh 30.48 in1032.2 mb 0.00 in0.0 mm 0.00 in0.0 mm 0.00 in0.0 mm
10:40 AM 43.5°F6.4°C 36.5°F2.5°C 76% Calm Calm 3.8 mph6.1 kmh 30.48 in1032.2 mb 0.00 in0.0 mm 0.00 in0.0 mm 0.00 in0.0 mm
10:45 AM 44.2°F6.8°C 36.8°F2.7°C 75% 2.2 mph S3.5 kmh S 3.8 mph6.1 kmh 30.47 in1031.8 mb 0.00 in0.0 mm 0.00 in0.0 mm 0.00 in0.0 mm
10:50 AM 44.2°F6.8°C 36.8°F2.7°C 75% Calm Calm 3.1 mph5.0 kmh 30.47 in1031.8 mb 0.00 in0.0 mm 0.00 in0.0 mm 0.00 in0.0 mm
10:55 AM 44.8°F7.1°C 37.0°F2.8°C 74% 0.7 mph NW1.1 kmh NW 3.1 mph5.0 kmh 30.48 in1032.2 mb 0.00 in0.0 mm 0.00 in0.0 mm 0.00 in0.0 mm
11:00 AM 45.0°F7.2°C 36.8°F2.7°C 73% 1.6 mph WNW2.6 kmh WNW 3.8 mph6.1 kmh 30.47 in1031.8 mb 0.00 in0.0 mm 0.00 in0.0 mm 0.00 in0.0 mm
11:05 AM 45.1°F7.3°C 37.0°F2.8°C 73% Calm Calm 3.8 mph6.1 kmh 30.47 in1031.8 mb 0.00 in0.0 mm 0.00 in0.0 mm 0.00 in0.0 mm
11:10 AM 45.5°F7.5°C 37.0°F2.8°C 72% 0.7 mph W1.1 kmh W 3.1 mph5.0 kmh 30.47 in1031.8 mb 0.00 in0.0 mm 0.00 in0.0 mm 0.00 in0.0 mm
11:15 AM 46.0°F7.8°C 37.5°F3.1°C 72% 2.2 mph SSW3.5 kmh SSW 3.1 mph5.0 kmh 30.47 in1031.8 mb 0.00 in0.0 mm 0.00 in0.0 mm 0.00 in0.0 mm
11:20 AM 46.4°F8.0°C 37.9°F3.3°C 72% Calm Calm 5.4 mph8.7 kmh 30.46 in1031.5 mb 0.00 in0.0 mm 0.00 in0.0 mm 0.00 in0.0 mm
11:25 AM 46.9°F8.3°C 38.0°F3.3°C 71% 2.2 mph SSW3.5 kmh SSW 5.4 mph8.7 kmh 30.46 in1031.5 mb 0.00 in0.0 mm 0.00 in0.0 mm 0.00 in0.0 mm
11:30 AM 47.3°F8.5°C 38.0°F3.3°C 70% 2.2 mph SW3.5 kmh SW 4.5 mph7.2 kmh 30.46 in1031.5 mb 0.00 in0.0 mm 0.00 in0.0 mm 0.00 in0.0 mm
11:35 AM 47.5°F8.6°C 37.8°F3.2°C 69% 0.7 mph WSW1.1 kmh WSW 3.8 mph6.1 kmh 30.46 in1031.5 mb 0.00 in0.0 mm 0.00 in0.0 mm 0.00 in0.0 mm
11:40 AM 47.8°F8.8°C 37.8°F3.2°C 68% Calm Calm 3.1 mph5.0 kmh 30.46 in1031.5 mb 0.00 in0.0 mm 0.00 in0.0 mm 0.00 in0.0 mm
11:45 AM 48.6°F9.2°C 38.1°F3.4°C 67% 2.2 mph W3.5 kmh W 3.8 mph6.1 kmh 30.46 in1031.5 mb 0.00 in0.0 mm 0.00 in0.0 mm 0.00 in0.0 mm
11:50 AM 49.1°F9.5°C 39.0°F3.9°C 68% 3.8 mph W6.1 kmh W 6.0 mph9.7 kmh 30.46 in1031.5 mb 0.00 in0.0 mm 0.00 in0.0 mm 0.00 in0.0 mm
11:55 AM 48.7°F9.3°C 37.9°F3.3°C 66% 1.6 mph WSW2.6 kmh WSW 6.0 mph9.7 kmh 30.46 in1031.5 mb 0.00 in0.0 mm 0.00 in0.0 mm 0.00 in0.0 mm
12:00 PM 48.6°F9.2°C 37.3°F2.9°C 65% 3.1 mph SSW5.0 kmh SSW 5.4 mph8.7 kmh 30.45 in1031.2 mb 0.00 in0.0 mm 0.00 in0.0 mm 0.00 in0.0 mm
12:05 PM 49.3°F9.6°C 38.4°F3.6°C 66% 0.7 mph S1.1 kmh S 5.4 mph8.7 kmh 30.45 in1031.2 mb 0.00 in0.0 mm 0.00 in0.0 mm 0.00 in0.0 mm
12:10 PM 50.0°F10.0°C 38.7°F3.7°C 65% 1.6 mph WSW2.6 kmh WSW 5.4 mph8.7 kmh 30.45 in1031.2 mb 0.00 in0.0 mm 0.00 in0.0 mm 0.00 in0.0 mm
12:15 PM 50.4°F10.2°C 38.7°F3.7°C 64% Calm Calm 4.5 mph7.2 kmh 30.45 in1031.2 mb 0.00 in0.0 mm 0.00 in0.0 mm 0.00 in0.0 mm
12:20 PM 50.7°F10.4°C 38.6°F3.7°C 63% 3.8 mph WNW6.1 kmh WNW 5.4 mph8.7 kmh 30.45 in1031.2 mb 0.00 in0.0 mm 0.00 in0.0 mm 0.00 in0.0 mm
12:25 PM 50.9°F10.5°C 38.8°F3.8°C 63% 1.6 mph NNW2.6 kmh NNW 6.0 mph9.7 kmh 30.45 in1031.2 mb 0.00 in0.0 mm 0.00 in0.0 mm 0.00 in0.0 mm
12:30 PM 51.1°F10.6°C 38.9°F3.8°C 63% 1.6 mph N2.6 kmh N 6.0 mph9.7 kmh 30.44 in1030.8 mb 0.00 in0.0 mm 0.00 in0.0 mm 0.00 in0.0 mm
12:35 PM 51.8°F11.0°C 39.2°F4.0°C 62% 4.5 mph NW7.2 kmh NW 5.4 mph8.7 kmh 30.44 in1030.8 mb 0.00 in0.0 mm 0.00 in0.0 mm 0.00 in0.0 mm
12:40 PM 51.6°F10.9°C 38.6°F3.7°C 61% 2.2 mph WNW3.5 kmh WNW 6.0 mph9.7 kmh 30.45 in1031.2 mb 0.00 in0.0 mm 0.00 in0.0 mm 0.00 in0.0 mm
12:45 PM 51.6°F10.9°C 37.8°F3.2°C 59% 4.5 mph WNW7.2 kmh WNW 7.6 mph12.2 kmh 30.44 in1030.8 mb 0.00 in0.0 mm 0.00 in0.0 mm 0.00 in0.0 mm
12:50 PM 51.8°F11.0°C 37.1°F2.8°C 57% 3.1 mph WNW5.0 kmh WNW 7.6 mph12.2 kmh 30.44 in1030.8 mb 0.00 in0.0 mm 0.00 in0.0 mm 0.00 in0.0 mm
12:55 PM 52.2°F11.2°C 36.9°F2.7°C 56% 2.2 mph W3.5 kmh W 6.0 mph9.7 kmh 30.44 in1030.8 mb 0.00 in0.0 mm 0.00 in0.0 mm 0.00 in0.0 mm
01:00 PM 52.3°F11.3°C 37.1°F2.8°C 56% 1.6 mph WSW2.6 kmh WSW 4.5 mph7.2 kmh 30.43 in1030.5 mb 0.00 in0.0 mm 0.00 in0.0 mm 0.00 in0.0 mm
01:05 PM 52.9°F11.6°C 37.6°F3.1°C 56% 2.2 mph WSW3.5 kmh WSW 4.5 mph7.2 kmh 30.43 in1030.5 mb 0.00 in0.0 mm 0.00 in0.0 mm 0.00 in0.0 mm
01:10 PM 53.6°F12.0°C 37.8°F3.2°C 55% 0.7 mph WSW1.1 kmh WSW 5.4 mph8.7 kmh 30.43 in1030.5 mb 0.00 in0.0 mm 0.00 in0.0 mm 0.00 in0.0 mm
01:15 PM 54.0°F12.2°C 37.7°F3.2°C 54% 1.6 mph W2.6 kmh W 5.4 mph8.7 kmh 30.42 in1030.1 mb 0.00 in0.0 mm 0.00 in0.0 mm 0.00 in0.0 mm
01:20 PM 54.1°F12.3°C 37.9°F3.3°C 54% 2.2 mph NW3.5 kmh NW 6.0 mph9.7 kmh 30.42 in1030.1 mb 0.00 in0.0 mm 0.00 in0.0 mm 0.00 in0.0 mm
01:25 PM 54.5°F12.5°C 38.2°F3.4°C 54% 2.2 mph WNW3.5 kmh WNW 6.0 mph9.7 kmh 30.42 in1030.1 mb 0.00 in0.0 mm 0.00 in0.0 mm 0.00 in0.0 mm
01:30 PM 54.7°F12.6°C 38.4°F3.6°C 54% 3.1 mph WNW5.0 kmh WNW 6.0 mph9.7 kmh 30.41 in1029.8 mb 0.00 in0.0 mm 0.00 in0.0 mm 0.00 in0.0 mm
01:35 PM 55.0°F12.8°C 38.2°F3.4°C 53% 3.1 mph W5.0 kmh W 6.9 mph11.1 kmh 30.41 in1029.8 mb 0.00 in0.0 mm 0.00 in0.0 mm 0.00 in0.0 mm
01:40 PM 55.2°F12.9°C 37.9°F3.3°C 52% 3.1 mph SW5.0 kmh SW 6.9 mph11.1 kmh 30.41 in1029.8 mb 0.00 in0.0 mm 0.00 in0.0 mm 0.00 in0.0 mm
01:45 PM 55.9°F13.3°C 39.1°F3.9°C 53% 4.5 mph WSW7.2 kmh WSW 6.9 mph11.1 kmh 30.41 in1029.8 mb 0.00 in0.0 mm 0.00 in0.0 mm 0.00 in0.0 mm
01:50 PM 56.1°F13.4°C 37.7°F3.2°C 50% 3.8 mph WNW6.1 kmh WNW 6.9 mph11.1 kmh 30.40 in1029.5 mb 0.00 in0.0 mm 0.00 in0.0 mm 0.00 in0.0 mm
01:55 PM 56.5°F13.6°C 38.1°F3.4°C 50% 1.6 mph WNW2.6 kmh WNW 6.0 mph9.7 kmh 30.41 in1029.8 mb 0.00 in0.0 mm 0.00 in0.0 mm 0.00 in0.0 mm
02:00 PM 56.7°F13.7°C 37.7°F3.2°C 49% 3.1 mph WNW5.0 kmh WNW 5.4 mph8.7 kmh 30.40 in1029.5 mb 0.00 in0.0 mm 0.00 in0.0 mm 0.00 in0.0 mm
02:05 PM 57.0°F13.9°C 38.1°F3.4°C 49% 3.8 mph WNW6.1 kmh WNW 6.9 mph11.1 kmh 30.40 in1029.5 mb 0.00 in0.0 mm 0.00 in0.0 mm 0.00 in0.0 mm
02:10 PM 57.4°F14.1°C 37.9°F3.3°C 48% 1.6 mph WNW2.6 kmh WNW 6.9 mph11.1 kmh 30.39 in1029.1 mb 0.00 in0.0 mm 0.00 in0.0 mm 0.00 in0.0 mm
02:15 PM 57.9°F14.4°C 37.8°F3.2°C 47% 3.8 mph NW6.1 kmh NW 6.0 mph9.7 kmh 30.38 in1028.8 mb 0.00 in0.0 mm 0.00 in0.0 mm 0.00 in0.0 mm
02:20 PM 58.6°F14.8°C 39.0°F3.9°C 48% 5.4 mph NW8.7 kmh NW 6.9 mph11.1 kmh 30.38 in1028.8 mb 0.00 in0.0 mm 0.00 in0.0 mm 0.00 in0.0 mm
02:25 PM 58.8°F14.9°C 38.6°F3.7°C 47% 1.6 mph NW2.6 kmh NW 6.9 mph11.1 kmh 30.38 in1028.8 mb 0.00 in0.0 mm 0.00 in0.0 mm 0.00 in0.0 mm
02:30 PM 59.2°F15.1°C 37.3°F2.9°C 44% 1.6 mph NW2.6 kmh NW 6.9 mph11.1 kmh 30.38 in1028.8 mb 0.00 in0.0 mm 0.00 in0.0 mm 0.00 in0.0 mm
02:35 PM 59.5°F15.3°C 38.2°F3.4°C 45% 2.2 mph NW3.5 kmh NW 4.5 mph7.2 kmh 30.38 in1028.8 mb 0.00 in0.0 mm 0.00 in0.0 mm 0.00 in0.0 mm
02:40 PM 60.4°F15.8°C 38.4°F3.6°C 44% 2.2 mph NW3.5 kmh NW 5.4 mph8.7 kmh 30.37 in1028.4 mb 0.00 in0.0 mm 0.00 in0.0 mm 0.00 in0.0 mm
02:45 PM 60.6°F15.9°C 38.0°F3.3°C 43% 0.7 mph SSE1.1 kmh SSE 5.4 mph8.7 kmh 30.37 in1028.4 mb 0.00 in0.0 mm 0.00 in0.0 mm 0.00 in0.0 mm
02:50 PM 61.3°F16.3°C 38.1°F3.4°C 42% 1.6 mph SW2.6 kmh SW 4.5 mph7.2 kmh 30.37 in1028.4 mb 0.00 in0.0 mm 0.00 in0.0 mm 0.00 in0.0 mm
02:55 PM 61.5°F16.4°C 37.0°F2.8°C 40% 0.7 mph W1.1 kmh W 6.0 mph9.7 kmh 30.36 in1028.1 mb 0.00 in0.0 mm 0.00 in0.0 mm 0.00 in0.0 mm
03:00 PM 61.7°F16.5°C 38.4°F3.6°C 42% 0.7 mph WNW1.1 kmh WNW 6.0 mph9.7 kmh 30.36 in1028.1 mb 0.00 in0.0 mm 0.00 in0.0 mm 0.00 in0.0 mm
03:05 PM 61.9°F16.6°C 35.3°F1.8°C 37% 2.2 mph NW3.5 kmh NW 3.1 mph5.0 kmh 30.35 in1027.8 mb 0.00 in0.0 mm 0.00 in0.0 mm 0.00 in0.0 mm
03:10 PM 61.9°F16.6°C 36.7°F2.6°C 39% 0.7 mph E1.1 kmh E 4.5 mph7.2 kmh 30.36 in1028.1 mb 0.00 in0.0 mm 0.00 in0.0 mm 0.00 in0.0 mm
03:15 PM 62.4°F16.9°C 36.5°F2.5°C 38% 1.6 mph E2.6 kmh E 4.5 mph7.2 kmh 30.35 in1027.8 mb 0.00 in0.0 mm 0.00 in0.0 mm 0.00 in0.0 mm
03:20 PM 63.0°F17.2°C 35.6°F2.0°C 36% 0.7 mph NW1.1 kmh NW 3.1 mph5.0 kmh 30.35 in1027.8 mb 0.00 in0.0 mm 0.00 in0.0 mm 0.00 in0.0 mm
03:25 PM 63.7°F17.6°C 34.8°F1.6°C 34% 0.7 mph WSW1.1 kmh WSW 4.5 mph7.2 kmh 30.35 in1027.8 mb 0.00 in0.0 mm 0.00 in0.0 mm 0.00 in0.0 mm
03:30 PM 63.9°F17.7°C 35.0°F1.7°C 34% 2.2 mph W3.5 kmh W 4.5 mph7.2 kmh 30.34 in1027.4 mb 0.00 in0.0 mm 0.00 in0.0 mm 0.00 in0.0 mm
03:35 PM 64.2°F17.9°C 34.5°F1.4°C 33% 2.2 mph WNW3.5 kmh WNW 4.5 mph7.2 kmh 30.34 in1027.4 mb 0.00 in0.0 mm 0.00 in0.0 mm 0.00 in0.0 mm
03:40 PM 64.6°F18.1°C 36.3°F2.4°C 35% 3.1 mph W5.0 kmh W 4.5 mph7.2 kmh 30.34 in1027.4 mb 0.00 in0.0 mm 0.00 in0.0 mm 0.00 in0.0 mm
03:45 PM 64.9°F18.3°C 33.6°F0.9°C 31% 2.2 mph SW3.5 kmh SW 6.0 mph9.7 kmh 30.34 in1027.4 mb 0.00 in0.0 mm 0.00 in0.0 mm 0.00 in0.0 mm
03:50 PM 65.5°F18.6°C 32.4°F0.2°C 29% 5.4 mph SSW8.7 kmh SSW 8.3 mph13.4 kmh 30.34 in1027.4 mb 0.00 in0.0 mm 0.00 in0.0 mm 0.00 in0.0 mm
03:55 PM 65.7°F18.7°C 31.7°F-0.2°C 28% 1.6 mph SW2.6 kmh SW 8.3 mph13.4 kmh 30.33 in1027.1 mb 0.00 in0.0 mm 0.00 in0.0 mm 0.00 in0.0 mm
04:00 PM 65.7°F18.7°C 30.8°F-0.7°C 27% 2.2 mph SW3.5 kmh SW 8.3 mph13.4 kmh 30.33 in1027.1 mb 0.00 in0.0 mm 0.00 in0.0 mm 0.00 in0.0 mm
04:05 PM 66.0°F18.9°C 25.0°F-3.9°C 21% 2.2 mph SSW3.5 kmh SSW 9.2 mph14.8 kmh 30.33 in1027.1 mb 0.00 in0.0 mm 0.00 in0.0 mm 0.00 in0.0 mm
04:10 PM 66.0°F18.9°C 26.1°F-3.3°C 22% 4.5 mph SW7.2 kmh SW 9.8 mph15.8 kmh 30.33 in1027.1 mb 0.00 in0.0 mm 0.00 in0.0 mm 0.00 in0.0 mm
04:15 PM 66.4°F19.1°C 25.3°F-3.7°C 21% 0.7 mph WSW1.1 kmh WSW 9.8 mph15.8 kmh 30.33 in1027.1 mb 0.00 in0.0 mm 0.00 in0.0 mm 0.00 in0.0 mm
04:20 PM 66.7°F19.3°C 28.8°F-1.8°C 24% 1.6 mph WSW2.6 kmh WSW 9.2 mph14.8 kmh 30.33 in1027.1 mb 0.00 in0.0 mm 0.00 in0.0 mm 0.00 in0.0 mm
04:25 PM 66.7°F19.3°C 29.8°F-1.2°C 25% 4.5 mph W7.2 kmh W 9.2 mph14.8 kmh 30.33 in1027.1 mb 0.00 in0.0 mm 0.00 in0.0 mm 0.00 in0.0 mm
04:30 PM 66.9°F19.4°C 30.0°F-1.1°C 25% 5.4 mph W8.7 kmh W 9.2 mph14.8 kmh 30.32 in1026.8 mb 0.00 in0.0 mm 0.00 in0.0 mm 0.00 in0.0 mm
04:35 PM 66.6°F19.2°C 28.7°F-1.8°C 24% 3.8 mph WSW6.1 kmh WSW 9.2 mph14.8 kmh 30.32 in1026.8 mb 0.00 in0.0 mm 0.00 in0.0 mm 0.00 in0.0 mm
04:40 PM 66.6°F19.2°C 29.7°F-1.3°C 25% 4.5 mph WSW7.2 kmh WSW 9.2 mph14.8 kmh 30.32 in1026.8 mb 0.00 in0.0 mm 0.00 in0.0 mm 0.00 in0.0 mm
04:45 PM 66.6°F19.2°C 29.7°F-1.3°C 25% 6.0 mph SW9.7 kmh SW 10.7 mph17.2 kmh 30.32 in1026.8 mb 0.00 in0.0 mm 0.00 in0.0 mm 0.00 in0.0 mm
04:50 PM 66.4°F19.1°C 28.5°F-1.9°C 24% 3.1 mph S5.0 kmh S 10.7 mph17.2 kmh 30.32 in1026.8 mb 0.00 in0.0 mm 0.00 in0.0 mm 0.00 in0.0 mm
04:55 PM 66.7°F19.3°C 28.8°F-1.8°C 24% 3.1 mph SW5.0 kmh SW 10.7 mph17.2 kmh 30.32 in1026.8 mb 0.00 in0.0 mm 0.00 in0.0 mm 0.00 in0.0 mm
05:00 PM 67.1°F19.5°C 31.1°F-0.5°C 26% 2.2 mph W3.5 kmh W 10.7 mph17.2 kmh 30.32 in1026.8 mb 0.00 in0.0 mm 0.00 in0.0 mm 0.00 in0.0 mm
05:05 PM 67.3°F19.6°C 29.3°F-1.5°C 24% 6.0 mph W9.7 kmh W 10.7 mph17.2 kmh 30.32 in1026.8 mb 0.00 in0.0 mm 0.00 in0.0 mm 0.00 in0.0 mm
05:10 PM 67.1°F19.5°C 31.1°F-0.5°C 26% 3.1 mph W5.0 kmh W 10.7 mph17.2 kmh 30.32 in1026.8 mb 0.00 in0.0 mm 0.00 in0.0 mm 0.00 in0.0 mm
05:15 PM 66.9°F19.4°C 30.0°F-1.1°C 25% 6.0 mph WSW9.7 kmh WSW 10.7 mph17.2 kmh 30.32 in1026.8 mb 0.00 in0.0 mm 0.00 in0.0 mm 0.00 in0.0 mm
05:20 PM 66.7°F19.3°C 29.8°F-1.2°C 25% 3.1 mph WSW5.0 kmh WSW 11.4 mph18.3 kmh 30.32 in1026.8 mb 0.00 in0.0 mm 0.00 in0.0 mm 0.00 in0.0 mm
05:25 PM 66.6°F19.2°C 34.2°F1.2°C 30% 5.4 mph W8.7 kmh W 12.1 mph19.5 kmh 30.32 in1026.8 mb 0.00 in0.0 mm 0.00 in0.0 mm 0.00 in0.0 mm
05:30 PM 66.0°F18.9°C 39.0°F3.9°C 37% 5.4 mph WNW8.7 kmh WNW 12.1 mph19.5 kmh 30.32 in1026.8 mb 0.00 in0.0 mm 0.00 in0.0 mm 0.00 in0.0 mm
05:35 PM 65.7°F18.7°C 39.4°F4.1°C 38% 8.3 mph NW13.4 kmh NW 13.0 mph20.9 kmh 30.32 in1026.8 mb 0.00 in0.0 mm 0.00 in0.0 mm 0.00 in0.0 mm
05:40 PM 65.3°F18.5°C 39.1°F3.9°C 38% 9.8 mph NW15.8 kmh NW 13.0 mph20.9 kmh 30.32 in1026.8 mb 0.00 in0.0 mm 0.00 in0.0 mm 0.00 in0.0 mm
05:45 PM 64.6°F18.1°C 39.1°F3.9°C 39% 9.2 mph NW14.8 kmh NW 14.5 mph23.3 kmh 30.32 in1026.8 mb 0.00 in0.0 mm 0.00 in0.0 mm 0.00 in0.0 mm
05:50 PM 64.2°F17.9°C 39.4°F4.1°C 40% 8.3 mph WNW13.4 kmh WNW 14.5 mph23.3 kmh 30.32 in1026.8 mb 0.00 in0.0 mm 0.00 in0.0 mm 0.00 in0.0 mm
05:55 PM 64.0°F17.8°C 39.9°F4.4°C 41% 9.8 mph W15.8 kmh W 13.6 mph21.9 kmh 30.32 in1026.8 mb 0.00 in0.0 mm 0.00 in0.0 mm 0.00 in0.0 mm
06:00 PM 63.7°F17.6°C 39.6°F4.2°C 41% 6.0 mph WNW9.7 kmh WNW 16.8 mph27.0 kmh 30.32 in1026.8 mb 0.00 in0.0 mm 0.00 in0.0 mm 0.00 in0.0 mm
06:05 PM 63.1°F17.3°C 39.1°F3.9°C 41% 7.6 mph NW12.2 kmh NW 16.8 mph27.0 kmh 30.32 in1026.8 mb 0.00 in0.0 mm 0.00 in0.0 mm 0.00 in0.0 mm
06:10 PM 62.8°F17.1°C 38.7°F3.7°C 41% 7.6 mph WNW12.2 kmh WNW 15.9 mph25.6 kmh 30.32 in1026.8 mb 0.00 in0.0 mm 0.00 in0.0 mm 0.00 in0.0 mm
06:15 PM 62.6°F17.0°C 38.6°F3.7°C 41% 7.6 mph WNW12.2 kmh WNW 13.6 mph21.9 kmh 30.32 in1026.8 mb 0.00 in0.0 mm 0.00 in0.0 mm 0.00 in0.0 mm
06:20 PM 62.4°F16.9°C 39.6°F4.2°C 43% 4.5 mph WNW7.2 kmh WNW 16.8 mph27.0 kmh 30.32 in1026.8 mb 0.00 in0.0 mm 0.00 in0.0 mm 0.00 in0.0 mm
06:25 PM 62.1°F16.7°C 39.3°F4.1°C 43% 9.8 mph WNW15.8 kmh WNW 16.8 mph27.0 kmh 30.32 in1026.8 mb 0.00 in0.0 mm 0.00 in0.0 mm 0.00 in0.0 mm
06:30 PM 61.5°F16.4°C 38.8°F3.8°C 43% 7.6 mph NW12.2 kmh NW 16.8 mph27.0 kmh 30.32 in1026.8 mb 0.00 in0.0 mm 0.00 in0.0 mm 0.00 in0.0 mm
06:35 PM 61.0°F16.1°C 38.3°F3.5°C 43% 9.2 mph NW14.8 kmh NW 13.6 mph21.9 kmh 30.32 in1026.8 mb 0.00 in0.0 mm 0.00 in0.0 mm 0.00 in0.0 mm
06:40 PM 60.6°F15.9°C 39.2°F4.0°C 45% 8.3 mph NW13.4 kmh NW 13.6 mph21.9 kmh 30.32 in1026.8 mb 0.00 in0.0 mm 0.00 in0.0 mm 0.00 in0.0 mm
06:45 PM 60.1°F15.6°C 38.1°F3.4°C 44% 6.0 mph NW9.7 kmh NW 15.2 mph24.5 kmh 30.33 in1027.1 mb 0.00 in0.0 mm 0.00 in0.0 mm 0.00 in0.0 mm
06:50 PM 59.4°F15.2°C 37.5°F3.1°C 44% 13.0 mph NW20.9 kmh NW 19.0 mph30.6 kmh 30.33 in1027.1 mb 0.00 in0.0 mm 0.00 in0.0 mm 0.00 in0.0 mm
06:55 PM 58.8°F14.9°C 38.1°F3.4°C 46% 6.9 mph WNW11.1 kmh WNW 19.0 mph30.6 kmh 30.33 in1027.1 mb 0.00 in0.0 mm 0.00 in0.0 mm 0.00 in0.0 mm
07:00 PM 58.3°F14.6°C 38.2°F3.4°C 47% 9.2 mph NW14.8 kmh NW 19.0 mph30.6 kmh 30.33 in1027.1 mb 0.00 in0.0 mm 0.00 in0.0 mm 0.00 in0.0 mm
07:05 PM 57.6°F14.2°C 38.0°F3.3°C 48% 11.4 mph NW18.3 kmh NW 17.4 mph28.0 kmh 30.33 in1027.1 mb 0.00 in0.0 mm 0.00 in0.0 mm 0.00 in0.0 mm
07:10 PM 57.0°F13.9°C 38.6°F3.7°C 50% 9.8 mph NW15.8 kmh NW 17.4 mph28.0 kmh 30.34 in1027.4 mb 0.00 in0.0 mm 0.00 in0.0 mm 0.00 in0.0 mm
07:15 PM 56.5°F13.6°C 38.6°F3.7°C 51% 11.4 mph NW18.3 kmh NW 17.4 mph28.0 kmh 30.34 in1027.4 mb 0.00 in0.0 mm 0.00 in0.0 mm 0.00 in0.0 mm
07:20 PM 55.9°F13.3°C 39.1°F3.9°C 53% 8.3 mph NW13.4 kmh NW 16.8 mph27.0 kmh 30.34 in1027.4 mb 0.00 in0.0 mm 0.00 in0.0 mm 0.00 in0.0 mm
07:25 PM 55.6°F13.1°C 39.2°F4.0°C 54% 7.6 mph NW12.2 kmh NW 14.5 mph23.3 kmh 30.34 in1027.4 mb 0.00 in0.0 mm 0.00 in0.0 mm 0.00 in0.0 mm
07:30 PM 55.0°F12.8°C 38.7°F3.7°C 54% 6.0 mph WNW9.7 kmh WNW 14.5 mph23.3 kmh 30.34 in1027.4 mb 0.00 in0.0 mm 0.00 in0.0 mm 0.00 in0.0 mm
07:35 PM 54.9°F12.7°C 39.0°F3.9°C 55% 6.9 mph W11.1 kmh W 13.6 mph21.9 kmh 30.34 in1027.4 mb 0.00 in0.0 mm 0.00 in0.0 mm 0.00 in0.0 mm
07:40 PM 54.5°F12.5°C 38.7°F3.7°C 55% 9.8 mph WNW15.8 kmh WNW 15.9 mph25.6 kmh 30.35 in1027.8 mb 0.00 in0.0 mm 0.00 in0.0 mm 0.00 in0.0 mm
07:45 PM 54.3°F12.4°C 39.0°F3.9°C 56% 8.3 mph WNW13.4 kmh WNW 15.9 mph25.6 kmh 30.35 in1027.8 mb 0.00 in0.0 mm 0.00 in0.0 mm 0.00 in0.0 mm
07:50 PM 54.1°F12.3°C 38.8°F3.8°C 56% 5.4 mph WSW8.7 kmh WSW 18.3 mph29.5 kmh 30.36 in1028.1 mb 0.00 in0.0 mm 0.00 in0.0 mm 0.00 in0.0 mm
07:55 PM 54.0°F12.2°C 39.1°F3.9°C 57% 7.6 mph WSW12.2 kmh WSW 18.3 mph29.5 kmh 30.35 in1027.8 mb 0.00 in0.0 mm 0.00 in0.0 mm 0.00 in0.0 mm
08:00 PM 54.0°F12.2°C 39.1°F3.9°C 57% 5.4 mph W8.7 kmh W 12.1 mph19.5 kmh 30.35 in1027.8 mb 0.00 in0.0 mm 0.00 in0.0 mm 0.00 in0.0 mm
08:05 PM 53.6°F12.0°C 38.7°F3.7°C 57% 4.5 mph W7.2 kmh W 12.1 mph19.5 kmh 30.36 in1028.1 mb 0.00 in0.0 mm 0.00 in0.0 mm 0.00 in0.0 mm
08:10 PM 53.4°F11.9°C 39.5°F4.2°C 59% 4.5 mph W7.2 kmh W 12.1 mph19.5 kmh 30.36 in1028.1 mb 0.00 in0.0 mm 0.00 in0.0 mm 0.00 in0.0 mm
08:15 PM 53.2°F11.8°C 39.3°F4.1°C 59% 6.0 mph WNW9.7 kmh WNW 12.1 mph19.5 kmh 30.37 in1028.4 mb 0.00 in0.0 mm 0.00 in0.0 mm 0.00 in0.0 mm
08:20 PM 53.1°F11.7°C 39.6°F4.2°C 60% 5.4 mph W8.7 kmh W 12.1 mph19.5 kmh 30.37 in1028.4 mb 0.00 in0.0 mm 0.00 in0.0 mm 0.00 in0.0 mm
08:25 PM 52.9°F11.6°C 39.8°F4.3°C 61% 8.3 mph W13.4 kmh W 15.2 mph24.5 kmh 30.37 in1028.4 mb 0.00 in0.0 mm 0.00 in0.0 mm 0.00 in0.0 mm
08:30 PM 52.5°F11.4°C 39.9°F4.4°C 62% 6.9 mph WNW11.1 kmh WNW 15.2 mph24.5 kmh 30.37 in1028.4 mb 0.00 in0.0 mm 0.00 in0.0 mm 0.00 in0.0 mm
08:35 PM 52.3°F11.3°C 39.7°F4.3°C 62% 3.1 mph W5.0 kmh W 13.0 mph20.9 kmh 30.37 in1028.4 mb 0.00 in0.0 mm 0.00 in0.0 mm 0.00 in0.0 mm
08:40 PM 52.0°F11.1°C 39.4°F4.1°C 62% 6.0 mph WNW9.7 kmh WNW 9.8 mph15.8 kmh 30.37 in1028.4 mb 0.00 in0.0 mm 0.00 in0.0 mm 0.00 in0.0 mm
08:45 PM 51.6°F10.9°C 39.8°F4.3°C 64% 3.8 mph WNW6.1 kmh WNW 10.7 mph17.2 kmh 30.37 in1028.4 mb 0.00 in0.0 mm 0.00 in0.0 mm 0.00 in0.0 mm
08:50 PM 51.4°F10.8°C 39.7°F4.3°C 64% 6.9 mph NW11.1 kmh NW 10.7 mph17.2 kmh 30.38 in1028.8 mb 0.00 in0.0 mm 0.00 in0.0 mm 0.00 in0.0 mm
08:55 PM 51.3°F10.7°C 39.9°F4.4°C 65% 8.3 mph NW13.4 kmh NW 10.7 mph17.2 kmh 30.38 in1028.8 mb 0.00 in0.0 mm 0.00 in0.0 mm 0.00 in0.0 mm
09:00 PM 51.1°F10.6°C 39.7°F4.3°C 65% 6.0 mph W9.7 kmh W 10.7 mph17.2 kmh 30.38 in1028.8 mb 0.00 in0.0 mm 0.00 in0.0 mm 0.00 in0.0 mm
09:05 PM 50.9°F10.5°C 39.6°F4.2°C 65% 3.8 mph W6.1 kmh W 10.7 mph17.2 kmh 30.38 in1028.8 mb 0.00 in0.0 mm 0.00 in0.0 mm 0.00 in0.0 mm
09:10 PM 50.7°F10.4°C 39.4°F4.1°C 65% 4.5 mph WSW7.2 kmh WSW 9.2 mph14.8 kmh 30.38 in1028.8 mb 0.00 in0.0 mm 0.00 in0.0 mm 0.00 in0.0 mm
09:15 PM 50.5°F10.3°C 39.6°F4.2°C 66% 5.4 mph WSW8.7 kmh WSW 9.2 mph14.8 kmh 30.38 in1028.8 mb 0.00 in0.0 mm 0.00 in0.0 mm 0.00 in0.0 mm
09:20 PM 50.4°F10.2°C 39.4°F4.1°C 66% 5.4 mph W8.7 kmh W 9.2 mph14.8 kmh 30.38 in1028.8 mb 0.00 in0.0 mm 0.00 in0.0 mm 0.00 in0.0 mm
09:25 PM 50.2°F10.1°C 39.3°F4.1°C 66% 3.8 mph WNW6.1 kmh WNW 10.7 mph17.2 kmh 30.38 in1028.8 mb 0.00 in0.0 mm 0.00 in0.0 mm 0.00 in0.0 mm
09:30 PM 50.0°F10.0°C 39.1°F3.9°C 66% 1.6 mph W2.6 kmh W 10.7 mph17.2 kmh 30.38 in1028.8 mb 0.00 in0.0 mm 0.00 in0.0 mm 0.00 in0.0 mm
09:35 PM 49.8°F9.9°C 39.3°F4.1°C 67% 5.4 mph WNW8.7 kmh WNW 9.2 mph14.8 kmh 30.38 in1028.8 mb 0.00 in0.0 mm 0.00 in0.0 mm 0.00 in0.0 mm
09:40 PM 49.5°F9.7°C 39.3°F4.1°C 68% 3.8 mph W6.1 kmh W 9.2 mph14.8 kmh 30.38 in1028.8 mb 0.00 in0.0 mm 0.00 in0.0 mm 0.00 in0.0 mm
09:45 PM 49.3°F9.6°C 39.2°F4.0°C 68% 4.5 mph W7.2 kmh W 9.2 mph14.8 kmh 30.39 in1029.1 mb 0.00 in0.0 mm 0.00 in0.0 mm 0.00 in0.0 mm
09:50 PM 49.1°F9.5°C 39.0°F3.9°C 68% 3.1 mph W5.0 kmh W 9.2 mph14.8 kmh 30.39 in1029.1 mb 0.00 in0.0 mm 0.00 in0.0 mm 0.00 in0.0 mm
09:55 PM 49.1°F9.5°C 39.4°F4.1°C 69% 3.8 mph WSW6.1 kmh WSW 8.3 mph13.4 kmh 30.39 in1029.1 mb 0.00 in0.0 mm 0.00 in0.0 mm 0.00 in0.0 mm
10:00 PM 48.9°F9.4°C 39.2°F4.0°C 69% 3.1 mph W5.0 kmh W 7.6 mph12.2 kmh 30.39 in1029.1 mb 0.00 in0.0 mm 0.00 in0.0 mm 0.00 in0.0 mm
10:05 PM 48.6°F9.2°C 38.9°F3.8°C 69% 3.8 mph W6.1 kmh W 7.6 mph12.2 kmh 30.40 in1029.5 mb 0.00 in0.0 mm 0.00 in0.0 mm 0.00 in0.0 mm
10:10 PM 48.2°F9.0°C 38.5°F3.6°C 69% 3.1 mph W5.0 kmh W 7.6 mph12.2 kmh 30.40 in1029.5 mb 0.00 in0.0 mm 0.00 in0.0 mm 0.00 in0.0 mm
10:15 PM 48.0°F8.9°C 39.1°F3.9°C 71% 2.2 mph W3.5 kmh W 8.3 mph13.4 kmh 30.40 in1029.5 mb 0.00 in0.0 mm 0.00 in0.0 mm 0.00 in0.0 mm
10:20 PM 47.8°F8.8°C 38.9°F3.8°C 71% 4.5 mph WSW7.2 kmh WSW 8.3 mph13.4 kmh 30.40 in1029.5 mb 0.00 in0.0 mm 0.00 in0.0 mm 0.00 in0.0 mm
10:25 PM 47.7°F8.7°C 39.1°F3.9°C 72% 3.1 mph WSW5.0 kmh WSW 6.9 mph11.1 kmh 30.40 in1029.5 mb 0.00 in0.0 mm 0.00 in0.0 mm 0.00 in0.0 mm
10:30 PM 47.5°F8.6°C 38.9°F3.8°C 72% 5.4 mph W8.7 kmh W 8.3 mph13.4 kmh 30.40 in1029.5 mb 0.00 in0.0 mm 0.00 in0.0 mm 0.00 in0.0 mm
10:35 PM 47.1°F8.4°C 38.9°F3.8°C 73% 5.4 mph WNW8.7 kmh WNW 9.2 mph14.8 kmh 30.40 in1029.5 mb 0.00 in0.0 mm 0.00 in0.0 mm 0.00 in0.0 mm
10:40 PM 46.9°F8.3°C 38.7°F3.7°C 73% 2.2 mph WNW3.5 kmh WNW 9.2 mph14.8 kmh 30.40 in1029.5 mb 0.00 in0.0 mm 0.00 in0.0 mm 0.00 in0.0 mm
10:45 PM 46.8°F8.2°C 38.6°F3.7°C 73% 4.5 mph W7.2 kmh W 7.6 mph12.2 kmh 30.40 in1029.5 mb 0.00 in0.0 mm 0.00 in0.0 mm 0.00 in0.0 mm
10:50 PM 46.8°F8.2°C 38.9°F3.8°C 74% 3.1 mph WSW5.0 kmh WSW 6.9 mph11.1 kmh 30.41 in1029.8 mb 0.00 in0.0 mm 0.00 in0.0 mm 0.00 in0.0 mm
10:55 PM 46.8°F8.2°C 38.9°F3.8°C 74% 2.2 mph WSW3.5 kmh WSW 6.9 mph11.1 kmh 30.41 in1029.8 mb 0.00 in0.0 mm 0.00 in0.0 mm 0.00 in0.0 mm
11:00 PM 46.6°F8.1°C 38.7°F3.7°C 74% 2.2 mph WSW3.5 kmh WSW 6.0 mph9.7 kmh 30.41 in1029.8 mb 0.00 in0.0 mm 0.00 in0.0 mm 0.00 in0.0 mm
11:05 PM 46.4°F8.0°C 38.6°F3.7°C 74% 3.1 mph SW5.0 kmh SW 5.4 mph8.7 kmh 30.41 in1029.8 mb 0.00 in0.0 mm 0.00 in0.0 mm 0.00 in0.0 mm
11:10 PM 46.2°F7.9°C 38.4°F3.6°C 74% 1.6 mph S2.6 kmh S 5.4 mph8.7 kmh 30.41 in1029.8 mb 0.00 in0.0 mm 0.00 in0.0 mm 0.00 in0.0 mm
11:15 PM 46.0°F7.8°C 38.2°F3.4°C 74% 1.6 mph SW2.6 kmh SW 5.4 mph8.7 kmh 30.41 in1029.8 mb 0.00 in0.0 mm 0.00 in0.0 mm 0.00 in0.0 mm
11:20 PM 45.9°F7.7°C 38.1°F3.4°C 74% 2.2 mph SW3.5 kmh SW 5.4 mph8.7 kmh 30.41 in1029.8 mb 0.00 in0.0 mm 0.00 in0.0 mm 0.00 in0.0 mm
11:25 PM 45.7°F7.6°C 37.9°F3.3°C 74% 2.2 mph SW3.5 kmh SW 4.5 mph7.2 kmh 30.41 in1029.8 mb 0.00 in0.0 mm 0.00 in0.0 mm 0.00 in0.0 mm
11:30 PM 45.7°F7.6°C 37.9°F3.3°C 74% 0.7 mph WSW1.1 kmh WSW 4.5 mph7.2 kmh 30.41 in1029.8 mb 0.00 in0.0 mm 0.00 in0.0 mm 0.00 in0.0 mm
11:35 PM 45.5°F7.5°C 38.0°F3.3°C 75% 0.7 mph SW1.1 kmh SW 4.5 mph7.2 kmh 30.42 in1030.1 mb 0.00 in0.0 mm 0.00 in0.0 mm 0.00 in0.0 mm
11:40 PM 45.1°F7.3°C 37.7°F3.2°C 75% 1.6 mph SW2.6 kmh SW 3.1 mph5.0 kmh 30.41 in1029.8 mb 0.00 in0.0 mm 0.00 in0.0 mm 0.00 in0.0 mm
11:45 PM 45.0°F7.2°C 37.5°F3.1°C 75% 1.6 mph SSW2.6 kmh SSW 3.8 mph6.1 kmh 30.41 in1029.8 mb 0.00 in0.0 mm 0.00 in0.0 mm 0.00 in0.0 mm
11:50 PM 44.8°F7.1°C 37.7°F3.2°C 76% 0.7 mph S1.1 kmh S 3.8 mph6.1 kmh 30.42 in1030.1 mb 0.00 in0.0 mm 0.00 in0.0 mm 0.00 in0.0 mm
11:55 PM 44.6°F7.0°C 37.5°F3.1°C 76% 0.7 mph SSW1.1 kmh SSW 3.8 mph6.1 kmh 30.42 in1030.1 mb 0.00 in0.0 mm 0.00 in0.0 mm 0.00 in0.0 mm